createdAt,value
2023-05-16T00:00:48.922Z,55.40
2023-05-16T00:03:16.017Z,55.30
2023-05-16T00:05:43.014Z,55.40
2023-05-16T00:08:09.987Z,55.30
2023-05-16T00:10:37.944Z,55.40
2023-05-16T00:13:05.082Z,55.40
2023-05-16T00:15:32.099Z,55.30
2023-05-16T00:17:59.759Z,55.40
2023-05-16T00:20:28.508Z,55.40
2023-05-16T00:22:56.254Z,55.60
2023-05-16T00:25:23.669Z,55.60
2023-05-16T00:27:50.740Z,55.60
2023-05-16T00:30:17.788Z,55.50
2023-05-16T00:32:45.539Z,55.60
2023-05-16T00:35:12.741Z,55.60
2023-05-16T00:37:40.024Z,55.60
2023-05-16T00:40:07.745Z,55.50
2023-05-16T00:42:36.370Z,55.60
2023-05-16T00:45:04.851Z,55.60
2023-05-16T00:47:33.265Z,55.60
2023-05-16T00:50:00.902Z,55.50
2023-05-16T00:52:28.753Z,55.70
2023-05-16T00:54:55.710Z,55.70
2023-05-16T00:57:23.437Z,55.60
2023-05-16T00:59:50.814Z,55.60
2023-05-16T01:02:18.209Z,55.70
2023-05-16T01:04:46.191Z,55.80
2023-05-16T01:07:13.198Z,55.80
2023-05-16T01:09:41.371Z,55.80
2023-05-16T01:12:38.751Z,55.90
2023-05-16T01:15:11.086Z,56.00
2023-05-16T01:17:54.681Z,55.80
2023-05-16T01:20:38.630Z,56.10
2023-05-16T01:23:05.855Z,56.10
2023-05-16T01:25:48.452Z,56.00
2023-05-16T01:28:17.678Z,56.10
2023-05-16T01:30:45.010Z,56.10
2023-05-16T01:33:12.766Z,56.10
2023-05-16T01:35:54.482Z,56.20
2023-05-16T01:38:36.753Z,56.30
2023-05-16T01:41:16.229Z,56.40
2023-05-16T01:43:46.650Z,56.50
2023-05-16T01:46:30.070Z,56.80
2023-05-16T01:49:25.610Z,56.70
2023-05-16T01:51:57.274Z,56.70
2023-05-16T01:54:26.577Z,56.70
2023-05-16T01:56:56.558Z,56.90
2023-05-16T01:59:26.375Z,57.10
2023-05-16T02:01:55.438Z,57.10
2023-05-16T02:04:22.597Z,57.20
2023-05-16T02:06:49.865Z,57.50
2023-05-16T02:09:17.070Z,57.30
2023-05-16T02:11:44.071Z,57.50
2023-05-16T02:14:11.057Z,57.40
2023-05-16T02:16:38.158Z,57.30
2023-05-16T02:19:05.190Z,57.40
2023-05-16T02:21:32.239Z,57.30
2023-05-16T02:23:59.184Z,57.50
2023-05-16T02:26:27.142Z,57.40
2023-05-16T02:28:54.525Z,57.50
2023-05-16T02:31:28.862Z,57.60
2023-05-16T02:33:56.048Z,57.60
2023-05-16T02:36:23.049Z,57.50
2023-05-16T02:38:50.116Z,57.60
2023-05-16T02:41:17.088Z,57.60
2023-05-16T02:43:46.802Z,57.60
2023-05-16T02:46:24.943Z,57.50
2023-05-16T02:48:52.302Z,57.50
2023-05-16T02:51:22.153Z,57.60
2023-05-16T02:53:50.819Z,57.60
2023-05-16T02:56:18.795Z,57.70
2023-05-16T02:58:50.640Z,57.80
2023-05-16T03:01:18.665Z,57.70
2023-05-16T03:03:45.956Z,57.90
2023-05-16T03:06:13.264Z,57.90
2023-05-16T03:08:40.360Z,57.90
2023-05-16T03:11:07.296Z,58.10
2023-05-16T03:13:34.258Z,58.20
2023-05-16T03:16:01.593Z,58.40
2023-05-16T03:18:28.706Z,58.50
2023-05-16T03:20:56.307Z,58.70
2023-05-16T03:23:24.511Z,58.80
2023-05-16T03:25:51.581Z,59.10
2023-05-16T03:28:21.411Z,59.20
2023-05-16T03:30:48.498Z,59.40
2023-05-16T03:33:15.557Z,59.50
2023-05-16T03:35:43.523Z,59.70
2023-05-16T03:38:10.709Z,59.60
2023-05-16T03:40:37.769Z,59.80
2023-05-16T03:43:04.855Z,59.80
2023-05-16T03:45:32.892Z,60.00
2023-05-16T03:48:00.425Z,59.90
2023-05-16T03:50:27.399Z,59.90
2023-05-16T03:52:54.949Z,59.90
2023-05-16T03:55:22.262Z,60.10
2023-05-16T03:57:50.287Z,60.10
2023-05-16T04:00:18.052Z,60.30
2023-05-16T04:02:45.405Z,60.10
2023-05-16T04:05:14.190Z,60.20
2023-05-16T04:07:41.591Z,60.20
2023-05-16T04:10:09.980Z,60.10
2023-05-16T04:12:37.254Z,60.10
2023-05-16T04:15:05.766Z,60.20
2023-05-16T04:17:33.577Z,60.20
2023-05-16T04:20:01.095Z,61.10
2023-05-16T04:22:28.015Z,60.20
2023-05-16T04:24:55.142Z,60.40
2023-05-16T04:27:22.450Z,60.50
2023-05-16T04:29:50.645Z,60.30
2023-05-16T04:32:18.360Z,60.30
2023-05-16T04:34:46.838Z,60.10
2023-05-16T04:37:14.221Z,60.20
2023-05-16T04:39:41.791Z,60.10
2023-05-16T04:42:08.966Z,60.10
2023-05-16T04:44:36.241Z,60.40
2023-05-16T04:47:03.220Z,60.40
2023-05-16T04:49:31.296Z,60.50
2023-05-16T04:51:58.516Z,60.70
2023-05-16T04:54:26.479Z,60.60
2023-05-16T04:56:54.059Z,60.60
2023-05-16T04:59:22.441Z,60.80
2023-05-16T05:01:49.708Z,61.00
2023-05-16T05:04:17.917Z,60.80
2023-05-16T05:06:45.451Z,60.80
2023-05-16T05:09:12.685Z,60.90
2023-05-16T05:11:39.711Z,60.90
2023-05-16T05:14:06.688Z,60.80
2023-05-16T05:16:33.722Z,60.90
2023-05-16T05:19:01.078Z,60.90
2023-05-16T05:21:28.142Z,60.70
2023-05-16T05:23:55.065Z,60.90
2023-05-16T05:26:22.356Z,61.00
2023-05-16T05:29:00.999Z,61.20
2023-05-16T05:31:36.108Z,60.90
2023-05-16T05:34:03.710Z,60.80
2023-05-16T05:36:31.280Z,60.50
2023-05-16T05:38:58.324Z,60.30
2023-05-16T05:41:26.438Z,60.00
2023-05-16T05:43:53.423Z,59.80
2023-05-16T05:46:20.640Z,59.80
2023-05-16T05:48:47.746Z,59.80
2023-05-16T05:51:15.917Z,59.80
2023-05-16T05:53:42.948Z,59.70
2023-05-16T05:56:09.994Z,59.60
2023-05-16T05:58:36.958Z,59.60
2023-05-16T06:01:04.246Z,59.60
2023-05-16T06:03:31.876Z,59.60
2023-05-16T06:06:00.534Z,59.60
2023-05-16T06:08:27.620Z,59.70
2023-05-16T06:10:54.626Z,59.70
2023-05-16T06:13:21.634Z,59.50
2023-05-16T06:15:52.661Z,59.50
2023-05-16T06:18:20.276Z,59.30
2023-05-16T06:20:48.993Z,59.40
2023-05-16T06:23:19.283Z,59.30
2023-05-16T06:25:48.659Z,59.20
2023-05-16T06:28:15.801Z,59.20
2023-05-16T06:30:43.809Z,59.10
2023-05-16T06:33:10.919Z,59.10
2023-05-16T06:35:38.420Z,59.10
2023-05-16T06:38:05.400Z,59.20
2023-05-16T06:40:32.572Z,59.10
2023-05-16T06:42:59.549Z,59.00
2023-05-16T06:45:27.075Z,59.00
2023-05-16T06:47:56.643Z,59.00
2023-05-16T06:50:24.703Z,59.00
2023-05-16T06:52:54.358Z,59.00
2023-05-16T06:55:21.781Z,59.00
2023-05-16T06:57:48.812Z,59.00
2023-05-16T07:00:16.312Z,59.00
2023-05-16T07:02:43.456Z,59.20
2023-05-16T07:05:10.690Z,59.20
2023-05-16T07:07:37.817Z,59.30
2023-05-16T07:10:05.175Z,59.30
2023-05-16T07:12:32.208Z,59.40
2023-05-16T07:14:59.774Z,59.40
2023-05-16T07:17:27.056Z,59.40
2023-05-16T07:19:54.046Z,59.40
2023-05-16T07:22:21.097Z,59.40
2023-05-16T07:24:48.138Z,59.20
2023-05-16T07:27:15.217Z,59.10
2023-05-16T07:29:42.296Z,58.90
2023-05-16T07:32:09.284Z,59.10
2023-05-16T07:34:36.371Z,59.10
2023-05-16T07:37:03.633Z,59.10
2023-05-16T07:39:30.766Z,59.00
2023-05-16T07:41:58.449Z,59.10
2023-05-16T07:44:27.267Z,59.20
2023-05-16T07:46:54.675Z,59.00
2023-05-16T07:49:23.210Z,59.00
2023-05-16T07:51:50.784Z,58.90
2023-05-16T07:54:18.019Z,59.50
2023-05-16T07:56:45.036Z,58.70
2023-05-16T07:59:12.556Z,58.80
2023-05-16T08:01:39.589Z,58.80
2023-05-16T08:04:06.930Z,58.80
2023-05-16T08:06:37.281Z,58.80
2023-05-16T08:09:04.812Z,58.80
2023-05-16T08:11:33.105Z,58.70
2023-05-16T08:14:00.221Z,58.60
2023-05-16T08:16:27.384Z,58.40
2023-05-16T08:18:54.547Z,58.60
2023-05-16T08:21:21.570Z,58.60
2023-05-16T08:23:49.131Z,58.70
2023-05-16T08:26:18.295Z,58.60
2023-05-16T08:28:46.103Z,58.50
2023-05-16T08:31:13.246Z,58.60
2023-05-16T08:33:40.412Z,58.30
2023-05-16T08:36:08.017Z,58.00
2023-05-16T08:38:35.089Z,57.60
2023-05-16T08:41:02.234Z,57.60
2023-05-16T08:43:29.658Z,57.80
2023-05-16T08:45:56.908Z,58.00
2023-05-16T08:48:26.668Z,58.10
2023-05-16T08:50:54.038Z,58.20
2023-05-16T08:53:33.117Z,58.20
2023-05-16T08:56:01.312Z,58.10
2023-05-16T08:58:30.252Z,57.90
2023-05-16T09:00:57.617Z,57.60
2023-05-16T09:03:25.583Z,57.80
2023-05-16T09:05:52.799Z,57.60
2023-05-16T09:08:20.340Z,57.60
2023-05-16T09:10:47.396Z,57.70
2023-05-16T09:13:15.155Z,57.70
2023-05-16T09:15:42.317Z,57.60
2023-05-16T09:18:14.224Z,57.60
2023-05-16T09:20:49.096Z,57.60
2023-05-16T09:23:23.944Z,57.80
2023-05-16T09:25:53.529Z,57.90
2023-05-16T09:28:20.788Z,58.00
2023-05-16T09:30:48.983Z,58.00
2023-05-16T09:33:16.400Z,57.60
2023-05-16T09:35:45.342Z,57.30
2023-05-16T09:38:18.890Z,57.00
2023-05-16T09:40:46.764Z,56.90
2023-05-16T09:43:17.677Z,56.70
2023-05-16T09:45:49.306Z,56.40
2023-05-16T09:48:18.114Z,56.30
2023-05-16T09:50:54.386Z,56.20
2023-05-16T09:53:29.043Z,56.00
2023-05-16T09:56:16.265Z,55.90
2023-05-16T09:58:46.021Z,55.80
2023-05-16T10:01:13.809Z,55.80
2023-05-16T10:03:43.914Z,55.80
2023-05-16T10:06:13.813Z,56.00
2023-05-16T10:08:43.151Z,55.80
2023-05-16T10:11:11.131Z,55.80
2023-05-16T10:13:39.938Z,55.60
2023-05-16T10:16:14.826Z,55.70
2023-05-16T10:18:43.493Z,56.40
2023-05-16T10:21:15.232Z,55.70
2023-05-16T10:23:44.011Z,55.60
2023-05-16T10:26:14.340Z,55.00
2023-05-16T10:28:43.827Z,55.20
2023-05-16T10:31:11.929Z,55.60
2023-05-16T10:33:39.749Z,55.80
2023-05-16T10:36:11.170Z,55.80
2023-05-16T10:38:40.193Z,55.70
2023-05-16T10:41:08.866Z,56.00
2023-05-16T10:43:36.854Z,56.10
2023-05-16T10:46:13.032Z,55.80
2023-05-16T10:48:41.549Z,55.70
2023-05-16T10:51:24.204Z,55.50
2023-05-16T10:53:55.523Z,55.30
2023-05-16T10:56:27.587Z,54.70
2023-05-16T10:58:56.119Z,54.90
2023-05-16T11:01:36.233Z,55.00
2023-05-16T11:04:06.654Z,55.00
2023-05-16T11:06:43.091Z,55.20
2023-05-16T11:09:16.108Z,55.10
2023-05-16T11:11:52.177Z,55.10
2023-05-16T11:14:21.958Z,55.10
2023-05-16T11:17:00.455Z,55.00
2023-05-16T11:19:35.877Z,54.90
2023-05-16T11:22:23.882Z,54.70
2023-05-16T11:25:07.097Z,54.60
2023-05-16T11:27:46.596Z,54.80
2023-05-16T11:30:19.553Z,54.80
2023-05-16T11:32:48.438Z,54.80
2023-05-16T11:35:17.946Z,54.70
2023-05-16T11:37:47.129Z,54.10
2023-05-16T11:40:15.845Z,53.30
2023-05-16T11:42:45.334Z,52.90
2023-05-16T11:45:17.884Z,52.80
2023-05-16T11:47:48.284Z,52.00
2023-05-16T11:50:20.974Z,52.00
2023-05-16T11:52:56.832Z,51.60
2023-05-16T11:55:41.091Z,51.30
2023-05-16T11:58:10.350Z,51.30
2023-05-16T12:00:37.571Z,51.40
2023-05-16T12:03:06.397Z,51.50
2023-05-16T12:05:35.361Z,51.90
2023-05-16T12:08:04.961Z,50.90
2023-05-16T12:10:34.800Z,50.70
2023-05-16T12:13:02.737Z,50.80
2023-05-16T12:15:30.269Z,50.90
2023-05-16T12:17:57.735Z,50.90
2023-05-16T12:20:26.332Z,50.80
2023-05-16T12:22:53.460Z,50.80
2023-05-16T12:25:30.222Z,51.20
2023-05-16T12:28:00.393Z,51.30
2023-05-16T12:30:30.550Z,51.30
2023-05-16T12:32:59.982Z,51.00
2023-05-16T12:35:33.335Z,50.40
2023-05-16T12:38:03.835Z,50.40
2023-05-16T12:40:31.271Z,50.30
2023-05-16T12:42:58.442Z,50.20
2023-05-16T12:45:28.090Z,50.50
2023-05-16T12:47:55.489Z,50.50
2023-05-16T12:50:25.031Z,50.80
2023-05-16T12:52:54.123Z,50.80
2023-05-16T12:55:22.976Z,51.00
2023-05-16T12:57:52.378Z,51.10
2023-05-16T13:00:21.259Z,51.10
2023-05-16T13:02:48.885Z,51.20
2023-05-16T13:05:17.574Z,51.30
2023-05-16T13:07:44.783Z,51.40
2023-05-16T13:10:12.818Z,51.60
2023-05-16T13:12:41.392Z,51.30
2023-05-16T13:15:10.489Z,51.20
2023-05-16T13:17:42.031Z,51.10
2023-05-16T13:20:10.368Z,51.20
2023-05-16T13:22:37.776Z,51.10
2023-05-16T13:25:06.857Z,51.00
2023-05-16T13:27:36.188Z,50.90
2023-05-16T13:30:04.346Z,50.70
2023-05-16T13:32:31.619Z,50.80
2023-05-16T13:34:58.740Z,50.80
2023-05-16T13:37:25.856Z,50.80
2023-05-16T13:39:54.911Z,50.70
2023-05-16T13:42:22.506Z,50.60
2023-05-16T13:44:50.119Z,50.70
2023-05-16T13:47:32.908Z,50.80
2023-05-16T13:50:10.113Z,50.60
2023-05-16T13:52:38.512Z,50.80
2023-05-16T13:55:06.529Z,50.80
2023-05-16T13:57:33.710Z,50.90
2023-05-16T14:02:40.591Z,51.00
2023-05-16T14:05:10.914Z,51.00
2023-05-16T14:07:38.225Z,51.00
2023-05-16T14:10:07.067Z,51.70
2023-05-16T14:12:34.467Z,51.10
2023-05-16T14:15:01.794Z,51.80
2023-05-16T14:17:35.150Z,51.20
2023-05-16T14:20:08.989Z,51.10
2023-05-16T14:22:36.621Z,51.10
2023-05-16T14:25:03.797Z,51.20
2023-05-16T14:27:30.860Z,51.30
2023-05-16T14:29:59.025Z,51.30
2023-05-16T14:32:26.182Z,51.20
2023-05-16T14:34:53.905Z,51.20
2023-05-16T14:37:21.082Z,51.10
2023-05-16T14:39:50.968Z,51.00
2023-05-16T14:42:18.294Z,50.70
2023-05-16T14:44:45.407Z,50.40
2023-05-16T14:47:13.821Z,50.50
2023-05-16T14:49:41.357Z,50.50
2023-05-16T14:52:08.307Z,50.60
2023-05-16T14:54:35.686Z,50.30
2023-05-16T14:57:04.083Z,50.30
2023-05-16T14:59:31.577Z,50.30
2023-05-16T15:01:59.541Z,50.40
2023-05-16T15:04:28.861Z,50.30
2023-05-16T15:06:56.005Z,50.30
2023-05-16T15:09:23.077Z,50.30
2023-05-16T15:11:50.035Z,50.20
2023-05-16T15:14:17.015Z,50.30
2023-05-16T15:16:44.149Z,50.20
2023-05-16T15:19:11.642Z,51.00
2023-05-16T15:21:38.924Z,50.40
2023-05-16T15:24:06.799Z,50.30
2023-05-16T15:26:35.306Z,50.30
2023-05-16T15:29:02.743Z,50.30
2023-05-16T15:31:32.252Z,50.40
2023-05-16T15:33:59.369Z,50.20
2023-05-16T15:36:27.375Z,50.30
2023-05-16T15:38:54.352Z,50.30
2023-05-16T15:41:43.249Z,50.00
2023-05-16T15:44:09.024Z,49.90
2023-05-16T15:46:36.160Z,49.90
2023-05-16T15:49:04.687Z,50.00
2023-05-16T15:51:32.211Z,50.30
2023-05-16T15:53:59.202Z,50.10
2023-05-16T15:56:26.478Z,50.10
2023-05-16T15:58:55.792Z,50.20
2023-05-16T16:01:22.893Z,50.00
2023-05-16T16:03:53.416Z,49.70
2023-05-16T16:06:23.568Z,50.00
2023-05-16T16:08:51.989Z,49.90
2023-05-16T16:11:25.157Z,49.50
2023-05-16T16:13:52.236Z,49.40
2023-05-16T16:16:20.796Z,49.50
2023-05-16T16:18:56.485Z,49.30
2023-05-16T16:21:24.994Z,49.20
2023-05-16T16:23:54.924Z,49.00
2023-05-16T16:26:23.330Z,49.20
2023-05-16T16:28:50.594Z,48.90
2023-05-16T16:31:18.944Z,49.60
2023-05-16T16:33:49.259Z,49.00
2023-05-16T16:36:27.726Z,49.00
2023-05-16T16:38:57.571Z,48.80
2023-05-16T16:41:25.602Z,48.80
2023-05-16T16:43:54.274Z,48.80
2023-05-16T16:46:24.600Z,48.70
2023-05-16T16:48:56.624Z,48.50
2023-05-16T16:51:23.839Z,48.50
2023-05-16T16:53:51.082Z,48.20
2023-05-16T16:56:18.177Z,48.10
2023-05-16T16:58:45.358Z,47.90
2023-05-16T17:01:12.945Z,48.10
2023-05-16T17:03:40.129Z,47.80
2023-05-16T17:06:08.237Z,47.60
2023-05-16T17:08:35.315Z,47.80
2023-05-16T17:11:05.317Z,47.80
2023-05-16T17:13:34.050Z,47.70
2023-05-16T17:16:04.712Z,47.20
2023-05-16T17:18:34.617Z,47.50
2023-05-16T17:21:02.058Z,47.20
2023-05-16T17:23:29.166Z,47.40
2023-05-16T17:25:56.344Z,47.40
2023-05-16T17:28:23.401Z,47.40
2023-05-16T17:30:50.644Z,47.20
2023-05-16T17:33:19.072Z,47.40
2023-05-16T17:35:46.350Z,48.20
2023-05-16T17:38:13.516Z,47.50
2023-05-16T17:40:40.611Z,47.60
2023-05-16T17:43:07.729Z,47.50
2023-05-16T17:45:34.812Z,47.80
2023-05-16T17:48:02.329Z,47.90
2023-05-16T17:50:30.255Z,48.00
2023-05-16T17:52:57.466Z,47.90
2023-05-16T17:55:24.784Z,47.80
2023-05-16T17:57:51.866Z,47.90
2023-05-16T18:00:19.511Z,47.80
2023-05-16T18:02:46.603Z,47.70
2023-05-16T18:05:14.089Z,47.70
2023-05-16T18:07:41.180Z,47.80
2023-05-16T18:10:10.802Z,47.90
2023-05-16T18:12:38.937Z,48.10
2023-05-16T18:15:06.882Z,48.30
2023-05-16T18:17:34.734Z,48.50
2023-05-16T18:20:09.584Z,48.70
2023-05-16T18:22:37.698Z,48.70
2023-05-16T18:25:06.085Z,48.90
2023-05-16T18:27:33.810Z,49.20
2023-05-16T18:30:01.810Z,49.30
2023-05-16T18:32:29.107Z,49.40
2023-05-16T18:34:57.733Z,49.60
2023-05-16T18:37:25.280Z,49.80
2023-05-16T18:39:53.716Z,49.90
2023-05-16T18:42:21.417Z,50.10
2023-05-16T18:44:50.379Z,50.30
2023-05-16T18:47:17.629Z,50.40
2023-05-16T18:49:44.727Z,50.60
2023-05-16T18:52:13.297Z,50.80
2023-05-16T18:54:41.078Z,50.90
2023-05-16T18:57:08.469Z,50.90
2023-05-16T18:59:36.094Z,51.20
2023-05-16T19:02:04.511Z,51.30
2023-05-16T19:04:31.815Z,51.40
2023-05-16T19:07:00.020Z,51.50
2023-05-16T19:09:28.734Z,51.60
2023-05-16T19:11:56.488Z,51.70
2023-05-16T19:14:24.670Z,51.90
2023-05-16T19:16:52.532Z,52.10
2023-05-16T19:19:19.886Z,52.10
2023-05-16T19:21:47.119Z,52.30
2023-05-16T19:24:14.290Z,52.40
2023-05-16T19:26:41.406Z,52.60
2023-05-16T19:29:11.001Z,52.70
2023-05-16T19:31:38.007Z,52.70
2023-05-16T19:34:05.714Z,52.90
2023-05-16T19:36:33.883Z,53.00
2023-05-16T19:39:00.878Z,53.20
2023-05-16T19:41:28.139Z,53.20
2023-05-16T19:43:55.413Z,53.10
2023-05-16T19:46:24.366Z,53.20
2023-05-16T19:48:51.493Z,53.50
2023-05-16T19:51:29.572Z,53.60
2023-05-16T19:54:04.790Z,53.60
2023-05-16T19:56:31.928Z,53.60
2023-05-16T19:58:59.131Z,53.70
2023-05-16T20:01:26.278Z,54.50
2023-05-16T20:03:53.536Z,53.90
2023-05-16T20:06:20.649Z,54.00
2023-05-16T20:08:47.775Z,54.10
2023-05-16T20:11:14.949Z,54.00
2023-05-16T20:13:41.918Z,54.00
2023-05-16T20:16:08.925Z,54.00
2023-05-16T20:18:36.407Z,53.90
2023-05-16T20:21:04.804Z,54.40
2023-05-16T20:23:32.221Z,53.40
2023-05-16T20:25:59.287Z,52.80
2023-05-16T20:28:26.238Z,52.40
2023-05-16T20:30:53.206Z,52.00
2023-05-16T20:33:20.546Z,51.80
2023-05-16T20:35:47.824Z,51.50
2023-05-16T20:38:16.800Z,51.10
2023-05-16T20:40:43.881Z,50.50
2023-05-16T20:43:13.071Z,49.90
2023-05-16T20:45:40.450Z,49.60
2023-05-16T20:48:07.800Z,49.60
2023-05-16T20:50:39.025Z,49.50
2023-05-16T20:53:06.237Z,49.40
2023-05-16T20:55:33.325Z,49.20
2023-05-16T20:58:00.915Z,49.20
2023-05-16T21:00:28.063Z,49.10
2023-05-16T21:02:55.373Z,49.00
2023-05-16T21:05:25.768Z,49.00
2023-05-16T21:07:54.381Z,49.00
2023-05-16T21:10:21.369Z,48.90
2023-05-16T21:12:48.474Z,48.80
2023-05-16T21:15:15.651Z,48.80
2023-05-16T21:17:42.913Z,48.60
2023-05-16T21:20:10.596Z,48.50
2023-05-16T21:22:37.739Z,48.50
2023-05-16T21:25:05.321Z,48.40
2023-05-16T21:27:33.029Z,48.30
2023-05-16T21:30:00.036Z,48.20
2023-05-16T21:32:32.390Z,48.10
2023-05-16T21:35:01.329Z,48.10
2023-05-16T21:37:28.687Z,48.00
2023-05-16T21:39:55.778Z,48.00
2023-05-16T21:42:23.887Z,47.80
2023-05-16T21:44:51.653Z,47.60
2023-05-16T21:47:18.747Z,47.70
2023-05-16T21:49:45.721Z,47.60
2023-05-16T21:52:14.335Z,47.10
2023-05-16T21:54:41.310Z,47.10
2023-05-16T21:57:08.326Z,47.00
2023-05-16T21:59:35.498Z,46.80
2023-05-16T22:02:02.497Z,46.80
2023-05-16T22:04:31.005Z,46.80
2023-05-16T22:06:58.002Z,46.80
2023-05-16T22:09:25.025Z,46.90
2023-05-16T22:11:52.116Z,47.00
2023-05-16T22:14:19.239Z,47.20
2023-05-16T22:16:46.316Z,47.20
2023-05-16T22:19:13.348Z,47.00
2023-05-16T22:21:40.518Z,47.00
2023-05-16T22:24:07.720Z,47.20
2023-05-16T22:26:35.281Z,47.30
2023-05-16T22:29:02.312Z,47.30
2023-05-16T22:31:29.391Z,47.40
2023-05-16T22:33:56.602Z,47.40
2023-05-16T22:36:23.678Z,47.40
2023-05-16T22:38:51.341Z,47.50
2023-05-16T22:41:18.564Z,47.50
2023-05-16T22:43:45.732Z,47.60
2023-05-16T22:46:13.307Z,47.70
2023-05-16T22:48:40.658Z,47.70
2023-05-16T22:51:07.873Z,47.80
2023-05-16T22:53:34.912Z,47.80
2023-05-16T22:56:02.238Z,47.90
2023-05-16T22:58:30.570Z,48.80
2023-05-16T23:00:58.196Z,48.20
2023-05-16T23:03:25.343Z,48.20
2023-05-16T23:05:52.715Z,48.40
2023-05-16T23:08:19.788Z,49.20
2023-05-16T23:10:46.909Z,48.50
2023-05-16T23:13:14.187Z,48.60
2023-05-16T23:15:42.279Z,48.70
2023-05-16T23:18:09.522Z,48.80
2023-05-16T23:20:36.688Z,48.90
2023-05-16T23:23:04.232Z,49.10
2023-05-16T23:25:31.580Z,49.20
2023-05-16T23:27:58.762Z,49.10
2023-05-16T23:30:25.785Z,49.10
2023-05-16T23:32:53.435Z,49.20
2023-05-16T23:35:20.662Z,49.40
2023-05-16T23:37:47.779Z,49.50
2023-05-16T23:40:14.799Z,49.50
2023-05-16T23:42:42.278Z,49.50
2023-05-16T23:45:10.373Z,49.50
2023-05-16T23:47:38.249Z,49.60
2023-05-16T23:50:06.136Z,49.60
2023-05-16T23:52:33.198Z,49.70
2023-05-16T23:55:00.262Z,49.70
2023-05-16T23:57:28.293Z,49.70
2023-05-16T23:59:55.471Z,50.50
